Auburn Hills, Michigan
Current Conditions -  °F | °C
As of 11:14 PM on Sunday 25 Jan 2015 (Local Time) from KVLL Reporting Station
Scattered Clouds Scattered Clouds  
Wind Chill:   Ceiling: Unl
Heat Index: 19°   Visibility: 10mi
Dew Point:   Wind: 8mph
Humidity: 63%   Direction: 30°NNE
Pressure: 30"   Gusts: NA
Location:  42.67°N, 83.22°W
Report Text: KVLL 260414Z AUTO 03007KT 10SM SCT120 M07/M13 A3000 RMK AO2 T10701130
Loading
Personal Weather Stations






























Interactive Weather Map New forecast layout! Learn more

10-Day Weather Forecast

Advertisements
Track Severe Weather on mobile